createdAt,value
2018-03-07T14:49:39.644Z,22.30
2018-03-07T14:52:09.351Z,22.80
2018-03-07T14:54:37.838Z,22.80
2018-03-07T14:57:06.303Z,21.90
2018-03-07T15:10:22.196Z,21.50
2018-03-07T15:13:39.570Z,21.70
2018-03-07T15:16:09.260Z,22.10
2018-03-07T15:18:37.686Z,22.10
2018-03-07T15:21:55.242Z,22.00
2018-03-07T15:24:30.598Z,21.70
2018-03-07T15:30:28.477Z,21.20
2018-03-07T15:36:20.808Z,20.60
2018-03-07T15:38:49.189Z,21.50
2018-03-07T15:45:07.278Z,21.40
2018-03-07T15:47:35.629Z,20.90
2018-03-07T15:50:04.429Z,20.80
2018-03-07T15:52:32.693Z,21.10
2018-03-07T15:55:01.174Z,21.50
2018-03-07T15:57:30.067Z,21.70
2018-03-07T15:59:58.550Z,22.30
2018-03-07T16:02:27.030Z,21.40
2018-03-07T16:04:55.507Z,21.70
2018-03-07T16:07:35.258Z,21.60
2018-03-07T16:10:03.619Z,21.00
2018-03-07T16:12:50.698Z,20.60
2018-03-07T16:22:30.276Z,20.30
2018-03-07T16:24:58.709Z,19.10
2018-03-07T16:27:28.117Z,18.40
2018-03-07T16:29:56.514Z,17.60
2018-03-07T16:32:24.790Z,17.40
2018-03-07T16:34:53.049Z,17.20
2018-03-07T16:37:21.425Z,17.30
2018-03-07T16:39:50.977Z,17.20
2018-03-07T16:42:19.617Z,17.00
2018-03-07T16:44:47.892Z,16.90
2018-03-07T16:47:16.274Z,16.80
2018-03-07T16:49:44.559Z,16.80
2018-03-07T16:52:13.028Z,16.80
2018-03-07T16:54:41.514Z,16.70
2018-03-07T16:57:09.786Z,16.50
2018-03-07T16:59:38.073Z,16.60
2018-03-07T17:02:06.477Z,16.70
2018-03-07T17:04:36.457Z,16.40
2018-03-07T17:07:05.799Z,16.40
2018-03-07T17:09:35.676Z,16.20
2018-03-07T17:12:12.061Z,16.20
2018-03-07T17:14:40.527Z,16.10
2018-03-07T17:17:09.106Z,16.00
2018-03-07T17:19:37.592Z,15.90
2018-03-07T17:22:07.721Z,15.80
2018-03-07T17:24:43.678Z,15.80
2018-03-07T17:27:14.123Z,15.70
2018-03-07T17:29:43.148Z,15.70
2018-03-07T17:32:18.842Z,15.50
2018-03-07T17:34:47.314Z,15.50
2018-03-07T17:37:15.796Z,15.50
2018-03-07T17:39:53.614Z,15.40
2018-03-07T17:42:23.273Z,15.40
2018-03-07T17:44:51.827Z,15.30
2018-03-07T17:47:21.395Z,15.30
2018-03-07T17:49:50.125Z,15.30
2018-03-07T17:52:19.480Z,15.20
2018-03-07T17:54:48.269Z,15.20
2018-03-07T17:57:16.694Z,15.10
2018-03-07T17:59:50.790Z,15.00
2018-03-07T18:02:19.132Z,15.00
2018-03-07T18:04:52.463Z,15.00
2018-03-07T18:07:28.393Z,14.80
2018-03-07T18:09:56.869Z,14.70
2018-03-07T18:12:25.280Z,14.50
2018-03-07T18:14:54.029Z,14.50
2018-03-07T18:17:22.440Z,14.40
2018-03-07T18:19:50.748Z,14.40
2018-03-07T18:22:19.789Z,14.30
2018-03-07T18:24:48.264Z,14.30
2018-03-07T18:27:16.733Z,14.30
2018-03-07T18:29:45.121Z,14.20
2018-03-07T18:32:13.650Z,14.20
2018-03-07T18:34:48.124Z,14.20
2018-03-07T18:37:16.506Z,14.20
2018-03-07T18:39:46.314Z,14.20
2018-03-07T18:42:14.841Z,14.10
2018-03-07T18:44:43.377Z,14.00
2018-03-07T18:47:11.892Z,14.00
2018-03-07T18:49:40.340Z,13.90
2018-03-07T18:52:09.146Z,13.80
2018-03-07T18:54:37.814Z,13.60
2018-03-07T18:57:06.294Z,13.40
2018-03-07T18:59:35.188Z,13.10
2018-03-07T19:02:05.432Z,12.90
2018-03-07T19:04:34.044Z,12.70
2018-03-07T19:07:02.503Z,12.50
2018-03-07T19:09:30.997Z,12.50
2018-03-07T19:11:59.534Z,12.60
2018-03-07T19:14:29.282Z,12.80
2018-03-07T19:16:57.663Z,12.70
2018-03-07T19:19:26.394Z,12.80
2018-03-07T19:22:00.424Z,12.90
2018-03-07T19:24:35.711Z,12.90
2018-03-07T19:27:04.596Z,13.00
2018-03-07T19:29:34.568Z,13.10
2018-03-07T19:32:03.050Z,13.10
2018-03-07T19:34:31.344Z,13.20
2018-03-07T19:36:59.884Z,13.20
2018-03-07T19:39:28.494Z,13.40
2018-03-07T19:41:56.847Z,13.50
2018-03-07T19:44:26.025Z,13.50
2018-03-07T19:46:55.508Z,13.60
2018-03-07T19:49:23.816Z,13.60
2018-03-07T19:51:53.047Z,13.80
2018-03-07T19:54:30.768Z,13.80
2018-03-07T19:57:12.439Z,13.80
2018-03-07T19:59:40.954Z,13.80
2018-03-07T20:02:09.502Z,13.80
2018-03-07T20:04:42.351Z,13.80
2018-03-07T20:07:12.035Z,13.80
2018-03-07T20:09:40.720Z,13.80
2018-03-07T20:12:09.178Z,13.80
2018-03-07T20:14:37.498Z,13.90
2018-03-07T20:17:06.683Z,14.00
2018-03-07T20:19:36.652Z,14.00
2018-03-07T20:22:05.710Z,13.90
2018-03-07T20:24:34.807Z,13.90
2018-03-07T20:27:04.985Z,13.90
2018-03-07T20:29:42.072Z,13.80
2018-03-07T20:32:20.656Z,13.80
2018-03-07T20:34:50.161Z,13.80
2018-03-07T20:37:18.854Z,13.70
2018-03-07T20:39:47.228Z,13.60
2018-03-07T20:42:36.404Z,13.70
2018-03-07T20:45:06.284Z,13.60
2018-03-07T20:47:38.800Z,13.60
2018-03-07T20:50:10.317Z,13.50
2018-03-07T20:52:40.338Z,13.40
2018-03-07T20:55:08.932Z,13.50
2018-03-07T20:57:37.452Z,13.40
2018-03-07T21:00:06.109Z,13.40
2018-03-07T21:02:36.176Z,13.40
2018-03-07T21:05:07.843Z,13.40
2018-03-07T21:07:38.522Z,13.40
2018-03-07T21:10:09.463Z,13.40
2018-03-07T21:12:38.653Z,13.30
2018-03-07T21:15:09.096Z,13.30
2018-03-07T21:17:40.133Z,13.40
2018-03-07T21:20:08.895Z,13.40
2018-03-07T21:22:38.242Z,13.30
2018-03-07T21:25:06.715Z,13.20
2018-03-07T21:27:36.902Z,13.20
2018-03-07T21:30:06.313Z,13.10
2018-03-07T21:32:34.785Z,13.00
2018-03-07T21:35:03.204Z,12.90
2018-03-07T21:37:38.605Z,12.90
2018-03-07T21:40:06.985Z,12.70
2018-03-07T21:42:39.653Z,12.70
2018-03-07T21:45:11.320Z,12.80
2018-03-07T21:47:46.750Z,12.80
2018-03-07T21:50:15.357Z,12.80
2018-03-07T21:52:43.722Z,12.80
2018-03-07T21:55:37.965Z,12.60
2018-03-07T21:58:07.177Z,12.50
2018-03-07T22:00:36.430Z,12.40
2018-03-07T22:03:05.110Z,12.30
2018-03-07T22:05:34.365Z,12.30
2018-03-07T22:08:02.755Z,12.20
2018-03-07T22:10:38.946Z,12.20
2018-03-07T22:13:07.414Z,12.10
2018-03-07T22:15:37.560Z,12.00
2018-03-07T22:18:06.729Z,12.00
2018-03-07T22:20:36.577Z,11.90
2018-03-07T22:23:05.740Z,11.90
2018-03-07T22:25:34.326Z,11.80
2018-03-07T22:28:02.705Z,11.70
2018-03-07T22:30:31.230Z,11.70
2018-03-07T22:32:59.599Z,11.60
2018-03-07T22:35:31.103Z,11.50
2018-03-07T22:37:59.758Z,11.60
2018-03-07T22:40:47.534Z,11.50
2018-03-07T22:43:16.148Z,11.30
2018-03-07T22:45:44.496Z,11.20
2018-03-07T22:48:12.981Z,11.10
2018-03-07T22:50:41.455Z,11.00
2018-03-07T22:53:09.940Z,10.90
2018-03-07T22:55:40.063Z,10.80
2018-03-07T22:58:08.502Z,10.80
2018-03-07T23:00:43.676Z,10.80
2018-03-07T23:03:12.051Z,10.70
2018-03-07T23:05:40.579Z,10.70
2018-03-07T23:08:08.927Z,10.70
2018-03-07T23:10:37.397Z,10.60
2018-03-07T23:13:05.687Z,10.50
2018-03-07T23:15:34.188Z,10.60
2018-03-07T23:18:15.466Z,10.60
2018-03-07T23:20:45.484Z,10.60
2018-03-07T23:23:15.847Z,10.60
2018-03-07T23:25:45.072Z,10.60
2018-03-07T23:28:13.551Z,10.60
2018-03-07T23:30:42.037Z,10.60
2018-03-07T23:33:10.387Z,10.70
2018-03-07T23:35:53.788Z,10.80
2018-03-07T23:38:23.064Z,10.80
2018-03-07T23:40:59.710Z,10.80
2018-03-07T23:43:28.902Z,10.80
2018-03-07T23:45:57.211Z,10.80
2018-03-07T23:48:25.564Z,10.70
2018-03-07T23:50:54.656Z,10.70
2018-03-07T23:53:23.138Z,10.70
2018-03-07T23:55:52.854Z,10.70
2018-03-07T23:58:21.328Z,10.60
